KBHM/BHM METAR and TAF weather

Enter ICAO airport designator
Station Type Date Time Source
KBHM METAR 2019/06/17 05:53 UTC NOAA

KBHM 170553Z 18006KT 10SM FEW090 SCT250 26/19 A3004 RMK AO2 SLP163 60000 T02560189 10289 20244 403390233 50005


Station Type Date Time Source
KBHM Decoded METAR 2019/06/17 05:53 UTC NOAA

BIRMINGHAM INT'L AIRPORT, AL, United States (KBHM) 33-34N 086-45W 197M
Jun 17, 2019 - 01:53 AM EDT / 2019.06.17 0553 UTC
Wind: from the S (180 degrees) at 7 MPH (6 KT):0
Visibility: 10 mile(s):0
Sky conditions: partly cloudy
Temperature: 78.1 F (25.6 C)
Dew Point: 66.0 F (18.9 C)
Relative Humidity: 66%
Pressure (altimeter): 30.04 in. Hg (1017 hPa)
Pressure tendency: 0.01 inches (0.5 hPa) higher than three hours ago
ob: KBHM 170553Z 18006KT 10SM FEW090 SCT250 26/19 A3004 RMK AO2 SLP163 60000 T02560189 10289 20244 403390233 50005
cycle: 6

Station Type Date Time Source
KBHM TAF 2019/06/17 06:28 UTC NOAA

TAF KBHM 170526Z 1706/1806 VRB05KT P6SM SCT100
FM171800 19006KT P6SM BKN060 PROB30 1718/1724 6SM -TSRA BKN040CB

Example: see airport list